Time;durP1;ratioP1;P1;durP2;ratioP2;P2;SDS_P1;SDS_P2;PMS_P1;PMS_P2;Temp;Humidity;BMP_temperature;BMP_pressure;BME280_temperature;BME280_humidity;BME280_pressure;Samples;Min_cycle;Max_cycle;Signal;HPM_P1;HPM_P2
2023/03/24 00:00:10;;;;;;;13.77;5.45;;;;;;;9.82;100.00;99596.94;4873931;29;20055;-73
2023/03/24 00:02:40;;;;;;;12.68;5.65;;;;;;;9.81;100.00;99589.97;4874787;29;20072;-73
2023/03/24 00:05:13;;;;;;;10.98;5.30;;;;;;;9.81;100.00;99588.16;4872813;29;20150;-73
2023/03/24 00:07:39;;;;;;;13.88;5.70;;;;;;;9.81;100.00;99582.03;4890487;29;20056;-73
2023/03/24 00:10:14;;;;;;;9.70;5.43;;;;;;;9.81;100.00;99588.16;4889735;29;20409;-72
2023/03/24 00:12:41;;;;;;;10.70;4.93;;;;;;;9.79;100.00;99576.84;4889124;29;20748;-73
2023/03/24 00:15:11;;;;;;;11.30;4.95;;;;;;;9.80;100.00;99570.59;4855739;29;20059;-73
2023/03/24 00:17:38;;;;;;;8.27;4.90;;;;;;;9.80;100.00;99567.94;4883448;29;20047;-73
2023/03/24 00:20:13;;;;;;;10.20;4.78;;;;;;;9.78;100.00;99554.00;4886470;29;20113;-73
2023/03/24 00:22:48;;;;;;;10.30;4.65;;;;;;;9.77;100.00;99552.31;4868656;29;20071;-73
2023/03/24 00:25:22;;;;;;;8.23;4.78;;;;;;;9.75;100.00;99547.09;4877147;29;20052;-73
2023/03/24 00:27:47;;;;;;;9.98;4.47;;;;;;;9.75;100.00;99535.69;4868801;29;20063;-72
2023/03/24 00:30:13;;;;;;;8.07;4.57;;;;;;;9.75;100.00;99538.34;4887717;29;20052;-73
2023/03/24 00:32:39;;;;;;;12.80;4.70;;;;;;;9.74;100.00;99537.47;4885335;29;20052;-73
2023/03/24 00:35:07;;;;;;;10.57;4.97;;;;;;;9.73;100.00;99519.06;4887985;29;20131;-73
2023/03/24 00:37:36;;;;;;;12.32;5.10;;;;;;;9.73;100.00;99517.28;4886347;29;20047;-72
2023/03/24 00:40:11;;;;;;;8.90;4.20;;;;;;;9.73;100.00;99509.34;4884980;29;20064;-73
2023/03/24 00:42:37;;;;;;;11.35;5.00;;;;;;;9.72;100.00;99507.66;4865345;29;20547;-73
2023/03/24 00:45:05;;;;;;;7.60;4.18;;;;;;;9.73;100.00;99500.56;4885916;29;20491;-72
2023/03/24 00:47:35;;;;;;;9.00;4.38;;;;;;;9.72;100.00;99499.75;4868589;29;20056;-74
2023/03/24 00:50:06;;;;;;;7.45;3.90;;;;;;;9.71;100.00;99495.41;4886369;29;20080;-73
2023/03/24 00:52:32;;;;;;;9.20;4.05;;;;;;;9.72;100.00;99483.03;4886486;29;20131;-73
2023/03/24 00:55:00;;;;;;;9.60;3.92;;;;;;;9.71;100.00;99476.91;4865866;29;20672;-73
2023/03/24 00:57:28;;;;;;;7.25;3.70;;;;;;;9.71;100.00;99481.31;4884835;29;20613;-73
2023/03/24 00:59:55;;;;;;;9.93;4.05;;;;;;;9.71;100.00;99466.34;4884973;29;20056;-72
2023/03/24 01:02:24;;;;;;;9.27;4.03;;;;;;;9.71;100.00;99457.53;4887224;29;20044;-73
2023/03/24 01:04:53;;;;;;;6.95;3.70;;;;;;;9.72;100.00;99451.31;4884474;29;20484;-72
2023/03/24 01:07:20;;;;;;;7.28;4.00;;;;;;;9.72;100.00;99453.94;4880991;29;20055;-72
2023/03/24 01:09:50;;;;;;;9.70;5.03;;;;;;;9.73;100.00;99447.72;4864886;29;20507;-73
2023/03/24 01:12:20;;;;;;;9.20;4.50;;;;;;;9.73;100.00;99453.00;4879522;29;20370;-73
2023/03/24 01:14:46;;;;;;;5.97;4.07;;;;;;;9.73;100.00;99440.66;4884064;29;20055;-73
2023/03/24 01:17:12;;;;;;;6.20;3.97;;;;;;;9.74;100.00;99447.63;4886260;29;20175;-73
2023/03/24 01:19:39;;;;;;;7.68;4.15;;;;;;;9.74;100.00;99433.53;4883107;29;20048;-73
2023/03/24 01:22:05;;;;;;;7.13;4.10;;;;;;;9.73;100.00;99430.06;4869464;29;20579;-73
2023/03/24 01:24:30;;;;;;;6.68;4.07;;;;;;;9.75;100.00;99424.69;4884340;29;20050;-73
2023/03/24 01:26:56;;;;;;;6.80;4.30;;;;;;;9.76;100.00;99429.84;4871987;29;20128;-73
2023/03/24 01:29:22;;;;;;;6.47;4.22;;;;;;;9.77;100.00;99425.44;4865238;29;20045;-73
2023/03/24 01:31:47;;;;;;;11.82;4.35;;;;;;;9.76;100.00;99411.34;4863012;29;20999;-73
2023/03/24 01:34:13;;;;;;;7.85;4.38;;;;;;;9.78;100.00;99413.91;4861621;29;20052;-73
2023/03/24 01:36:38;;;;;;;6.85;4.45;;;;;;;9.77;100.00;99396.38;4868380;29;20048;-73
2023/03/24 01:39:04;;;;;;;8.02;4.68;;;;;;;9.76;100.00;99399.97;4867777;29;21022;-73
2023/03/24 01:41:36;;;;;;;7.13;4.53;;;;;;;9.78;100.00;99398.06;4868496;29;20081;-73
2023/03/24 01:44:26;;;;;;;8.48;4.70;;;;;;;9.78;100.00;99390.97;4864681;29;20063;-73
2023/03/24 01:46:52;;;;;;;7.30;4.55;;;;;;;9.79;100.00;99378.59;4866087;29;20164;-74
2023/03/24 01:49:18;;;;;;;7.22;4.57;;;;;;;9.79;100.00;99383.88;4866213;29;20292;-74
2023/03/24 01:51:46;;;;;;;7.75;4.65;;;;;;;9.81;100.00;99370.56;4852378;29;20059;-73
2023/03/24 01:54:29;;;;;;;6.57;4.38;;;;;;;9.81;100.00;99363.47;4866370;29;20140;-73
2023/03/24 01:57:08;;;;;;;9.35;5.05;;;;;;;9.83;100.00;99366.03;4868914;29;20564;-73
2023/03/24 01:59:36;;;;;;;6.88;4.38;;;;;;;9.84;100.00;99351.84;4868053;29;20480;-73
2023/03/24 02:02:03;;;;;;;10.55;4.80;;;;;;;9.84;100.00;99360.66;4869795;29;20580;-73
2023/03/24 02:04:37;;;;;;;10.05;5.10;;;;;;;9.87;100.00;99359.59;4872616;29;21906;-73
2023/03/24 02:07:30;;;;;;;9.90;5.15;;;;;;;9.88;100.00;99351.56;4872013;29;20040;-73
2023/03/24 02:09:56;;;;;;;8.10;4.28;;;;;;;9.89;100.00;99328.63;4862690;29;20128;-73
2023/03/24 02:12:21;;;;;;;8.23;4.65;;;;;;;9.89;100.00;99331.25;4868628;29;20048;-73
2023/03/24 02:14:47;;;;;;;7.55;5.13;;;;;;;9.90;100.00;99332.94;4867651;29;20072;-73
2023/03/24 02:17:24;;;;;;;7.93;4.85;;;;;;;9.90;100.00;99341.75;4867278;29;20139;-73
2023/03/24 02:19:58;;;;;;;6.47;4.70;;;;;;;9.92;100.00;99316.03;4865466;29;20124;-73
2023/03/24 02:22:32;;;;;;;6.80;4.50;;;;;;;9.93;100.00;99324.81;4869849;29;20056;-73
2023/03/24 02:25:25;;;;;;;7.82;4.35;;;;;;;9.94;100.00;99317.72;4851083;29;20136;-73
2023/03/24 02:28:08;;;;;;;8.90;4.88;;;;;;;9.97;100.00;99317.53;4869297;29;20108;-73
2023/03/24 02:30:49;;;;;;;7.07;5.13;;;;;;;9.97;100.00;99323.66;4868835;29;20044;-74
2023/03/24 02:33:42;;;;;;;7.78;4.97;;;;;;;10.00;100.00;99327.91;4868079;29;20104;-74
2023/03/24 02:36:36;;;;;;;6.40;4.80;;;;;;;10.02;100.00;99331.31;4869686;29;20126;-73
2023/03/24 02:39:31;;;;;;;10.18;5.53;;;;;;;10.04;100.00;99347.91;4869089;29;20681;-73
2023/03/24 02:42:05;;;;;;;6.50;4.65;;;;;;;10.04;100.00;99330.22;4857607;29;20144;-74
2023/03/24 02:45:03;;;;;;;9.85;5.05;;;;;;;10.03;100.00;99368.19;4869071;29;20060;-74
2023/03/24 02:47:35;;;;;;;7.63;4.70;;;;;;;10.01;100.00;99367.47;4866683;29;20116;-74
2023/03/24 02:50:19;;;;;;;7.55;4.97;;;;;;;9.98;100.00;99388.78;4870475;29;20048;-73
2023/03/24 02:52:46;;;;;;;6.15;4.20;;;;;;;9.94;100.00;99395.25;4868770;29;20411;-73
2023/03/24 02:55:20;;;;;;;8.48;4.53;;;;;;;9.87;100.00;99386.88;4866357;29;20768;-73
2023/03/24 02:57:53;;;;;;;6.30;4.10;;;;;;;9.84;100.00;99392.38;4869414;29;20514;-73
2023/03/24 03:00:29;;;;;;;8.38;4.28;;;;;;;9.80;100.00;99401.44;4867616;29;20052;-73
2023/03/24 03:03:15;;;;;;;5.57;3.75;;;;;;;9.76;100.00;99413.16;4868966;29;20258;-73
2023/03/24 03:05:48;;;;;;;4.40;3.42;;;;;;;9.70;100.00;99410.91;4868746;29;20135;-73
2023/03/24 03:08:16;;;;;;;4.40;2.80;;;;;;;9.63;100.00;99408.69;4853024;29;20576;-73
2023/03/24 03:10:44;;;;;;;2.67;1.90;;;;;;;9.56;100.00;99417.09;4867055;29;20152;-73
2023/03/24 03:13:15;;;;;;;3.83;2.08;;;;;;;9.48;100.00;99423.72;4864495;29;20047;-73
2023/03/24 03:15:43;;;;;;;2.38;1.70;;;;;;;9.41;100.00;99430.31;4865550;29;20056;-73
2023/03/24 03:18:21;;;;;;;5.47;2.05;;;;;;;9.35;100.00;99439.50;4847739;29;20181;-73
2023/03/24 03:20:54;;;;;;;6.20;1.80;;;;;;;9.30;100.00;99432.78;4865478;29;20481;-73
2023/03/24 03:23:28;;;;;;;3.33;1.85;;;;;;;9.24;100.00;99444.59;4863770;29;20630;-73
2023/03/24 03:26:04;;;;;;;3.00;1.52;;;;;;;9.19;100.00;99459.88;4864227;29;20135;-73
2023/03/24 03:28:35;;;;;;;3.92;1.75;;;;;;;9.15;100.00;99453.09;4876552;29;20060;-73
2023/03/24 03:31:06;;;;;;;4.30;1.67;;;;;;;9.10;100.00;99458.66;4866355;29;20049;-73
2023/03/24 03:33:35;;;;;;;4.07;1.50;;;;;;;9.06;100.00;99459.78;4872303;29;20052;-73
2023/03/24 03:36:13;;;;;;;6.75;1.58;;;;;;;9.02;100.00;99467.03;4867834;29;20071;-73
2023/03/24 03:38:55;;;;;;;5.88;1.50;;;;;;;8.95;100.00;99471.00;4885660;29;20104;-72
2023/03/24 03:41:21;;;;;;;3.90;1.58;;;;;;;8.91;100.00;99477.38;4869571;29;20036;-73
2023/03/24 03:43:47;;;;;;;5.55;1.20;;;;;;;8.87;100.00;99470.63;4883476;29;20515;-73
2023/03/24 03:46:15;;;;;;;6.40;1.60;;;;;;;8.81;100.00;99472.69;4884853;29;20044;-73
2023/03/24 03:48:42;;;;;;;4.88;1.38;;;;;;;8.77;100.00;99486.16;4885528;29;20681;-73
2023/03/24 03:51:08;;;;;;;6.05;1.27;;;;;;;8.72;100.00;99491.69;4868965;29;20083;-73
2023/03/24 03:53:48;;;;;;;6.25;1.15;;;;;;;8.69;100.00;99478.69;4885130;29;20049;-73
2023/03/24 03:56:17;;;;;;;4.30;1.08;;;;;;;8.64;100.00;99501.84;4886869;29;20063;-73
2023/03/24 03:58:45;;;;;;;5.28;1.10;;;;;;;8.60;100.00;99503.81;4882876;29;20036;-73
2023/03/24 04:01:15;;;;;;;6.20;1.40;;;;;;;8.54;100.00;99505.03;4881832;29;20100;-73
2023/03/24 04:04:00;;;;;;;3.65;1.15;;;;;;;8.48;100.00;99508.00;4882921;29;20048;-73
2023/03/24 04:07:10;;;;;;;4.80;1.38;;;;;;;8.42;100.00;99526.81;4880845;29;20452;-73
2023/03/24 04:09:38;;;;;;;3.40;1.13;;;;;;;8.35;100.00;99526.31;4872285;29;20095;-73
2023/03/24 04:12:29;;;;;;;5.18;1.38;;;;;;;8.29;100.00;99527.50;4886146;29;20083;-73
2023/03/24 04:15:20;;;;;;;6.13;1.90;;;;;;;8.22;100.00;99535.88;4877421;29;20063;-73
2023/03/24 04:17:58;;;;;;;4.53;1.10;;;;;;;8.15;100.00;99554.66;4886152;29;20081;-73
2023/03/24 04:20:45;;;;;;;4.93;1.60;;;;;;;8.11;100.00;99544.34;4884310;29;20056;-72
2023/03/24 04:23:45;;;;;;;4.07;1.30;;;;;;;8.04;100.00;99554.41;4853961;29;20057;-73
2023/03/24 04:26:26;;;;;;;4.32;1.50;;;;;;;7.99;100.00;99559.94;4881718;29;20048;-73
2023/03/24 04:29:19;;;;;;;6.78;1.55;;;;;;;7.96;100.00;99569.81;4879563;29;20059;-73
2023/03/24 04:31:53;;;;;;;5.82;1.83;;;;;;;7.91;100.00;99572.69;4868438;29;20139;-73
2023/03/24 04:34:38;;;;;;;8.32;1.50;;;;;;;7.88;100.00;99578.13;4870252;29;20040;-73
2023/03/24 04:37:31;;;;;;;3.50;1.40;;;;;;;7.89;100.00;99582.44;4883805;29;20092;-73
2023/03/24 04:39:58;;;;;;;4.47;1.73;;;;;;;7.89;100.00;99577.19;4875282;29;20175;-73
2023/03/24 04:42:36;;;;;;;10.93;1.90;;;;;;;7.87;100.00;99582.56;4870800;29;20709;-73
2023/03/24 04:45:03;;;;;;;5.53;1.80;;;;;;;7.86;100.00;99585.25;4881696;29;20190;-73
2023/03/24 04:47:32;;;;;;;3.80;1.70;;;;;;;7.84;100.00;99585.34;4867937;29;20444;-73
2023/03/24 04:50:05;;;;;;;9.07;1.88;;;;;;;7.82;100.00;99592.47;4870733;29;20032;-73
2023/03/24 04:52:30;;;;;;;8.00;1.58;;;;;;;7.80;100.00;99586.44;4864599;29;20055;-73
2023/03/24 04:54:56;;;;;;;4.57;1.60;;;;;;;7.77;100.00;99583.09;4887832;29;20373;-73
2023/03/24 04:57:22;;;;;;;8.35;2.05;;;;;;;7.75;100.00;99585.84;4867087;29;20143;-73
2023/03/24 04:59:48;;;;;;;7.00;1.60;;;;;;;7.73;100.00;99588.56;4885146;29;20052;-73
2023/03/24 05:02:13;;;;;;;7.70;1.52;;;;;;;7.72;100.00;99599.16;4884697;29;20039;-73
2023/03/24 05:04:39;;;;;;;7.75;1.88;;;;;;;7.69;100.00;99594.91;4885982;29;20072;-73
2023/03/24 05:07:04;;;;;;;7.75;1.60;;;;;;;7.67;100.00;99607.31;4886895;29;20059;-73
2023/03/24 05:09:30;;;;;;;7.22;1.30;;;;;;;7.65;100.00;99614.47;4870980;29;20090;-73
2023/03/24 05:11:56;;;;;;;7.53;1.58;;;;;;;7.62;100.00;99617.25;4883377;29;20044;-73
2023/03/24 05:14:22;;;;;;;7.50;1.70;;;;;;;7.57;100.00;99612.22;4888764;29;20587;-73
2023/03/24 05:16:48;;;;;;;8.45;1.85;;;;;;;7.55;100.00;99618.50;4888574;29;20040;-73
2023/03/24 05:19:13;;;;;;;6.15;1.58;;;;;;;7.52;100.00;99623.94;4869064;29;20048;-73
2023/03/24 05:21:39;;;;;;;7.65;1.77;;;;;;;7.49;100.00;99630.22;4884463;29;20098;-73
2023/03/24 05:24:05;;;;;;;4.18;1.52;;;;;;;7.44;100.00;99638.34;4882348;29;20048;-74
2023/03/24 05:26:31;;;;;;;9.23;1.75;;;;;;;7.41;100.00;99646.41;4867759;29;20044;-73
2023/03/24 05:28:57;;;;;;;6.97;1.55;;;;;;;7.41;100.00;99648.19;4885693;29;20050;-73
2023/03/24 05:31:22;;;;;;;10.13;1.85;;;;;;;7.39;100.00;99644.78;4886324;29;20456;-73
2023/03/24 05:33:48;;;;;;;9.57;1.92;;;;;;;7.36;100.00;99635.28;4864512;29;20076;-73
2023/03/24 05:36:14;;;;;;;3.50;1.50;;;;;;;7.36;100.00;99644.94;4883826;29;20157;-73
2023/03/24 05:38:39;;;;;;;6.68;1.50;;;;;;;7.34;100.00;99639.75;4883342;29;20048;-73
2023/03/24 05:41:05;;;;;;;9.18;2.03;;;;;;;7.32;100.00;99644.25;4868498;29;21167;-73
2023/03/24 05:43:31;;;;;;;7.20;1.70;;;;;;;7.32;100.00;99652.16;4883710;29;20056;-73
2023/03/24 05:45:58;;;;;;;8.27;1.52;;;;;;;7.31;100.00;99647.81;4886659;29;20499;-73
2023/03/24 05:48:25;;;;;;;7.70;1.42;;;;;;;7.28;100.00;99642.69;4868251;29;20166;-73
2023/03/24 05:50:51;;;;;;;6.03;1.55;;;;;;;7.27;100.00;99649.75;4887157;29;20057;-73
2023/03/24 05:53:17;;;;;;;8.82;2.05;;;;;;;7.24;100.00;99662.22;4885253;29;20163;-73
2023/03/24 05:55:52;;;;;;;4.50;1.40;;;;;;;7.25;100.00;99663.94;4881488;29;20500;-73
2023/03/24 05:58:20;;;;;;;6.13;1.45;;;;;;;7.25;100.00;99664.75;4883321;29;20063;-73
2023/03/24 06:00:46;;;;;;;5.75;1.48;;;;;;;7.25;100.00;99677.91;4865806;29;20040;-73
2023/03/24 06:03:12;;;;;;;9.65;1.75;;;;;;;7.27;100.00;99676.09;4884549;29;20051;-73
2023/03/24 06:05:38;;;;;;;6.45;1.95;;;;;;;7.27;100.00;99676.09;4881357;29;21321;-73
2023/03/24 06:08:04;;;;;;;9.10;2.00;;;;;;;7.27;100.00;99676.09;4879604;29;20480;-73
2023/03/24 06:10:29;;;;;;;8.23;1.80;;;;;;;7.28;100.00;99685.69;4885940;29;20158;-73
2023/03/24 06:12:55;;;;;;;4.60;1.45;;;;;;;7.30;100.00;99688.25;4881711;29;21612;-73
2023/03/24 06:15:23;;;;;;;9.27;1.92;;;;;;;7.33;100.00;99698.63;4883900;29;21648;-73
2023/03/24 06:17:49;;;;;;;8.20;1.83;;;;;;;7.35;100.00;99702.00;4867216;29;20051;-73
2023/03/24 06:20:17;;;;;;;5.57;1.75;;;;;;;7.39;100.00;99711.47;4884570;29;20048;-73
2023/03/24 06:22:44;;;;;;;8.07;1.40;;;;;;;7.41;100.00;99706.97;4868313;29;20058;-73
2023/03/24 06:25:11;;;;;;;5.35;1.60;;;;;;;7.42;100.00;99713.09;4866457;29;20108;-73
2023/03/24 06:27:37;;;;;;;6.95;1.98;;;;;;;7.44;100.00;99722.63;4882849;29;20051;-73
2023/03/24 06:30:03;;;;;;;7.60;1.80;;;;;;;7.44;100.00;99712.09;4865776;29;20082;-73
2023/03/24 06:32:29;;;;;;;12.05;2.00;;;;;;;7.44;100.00;99714.72;4851846;29;20075;-73
2023/03/24 06:35:06;;;;;;;9.65;1.80;;;;;;;7.45;100.00;99723.47;4883965;29;20418;-73
2023/03/24 06:37:31;;;;;;;9.38;1.60;;;;;;;7.45;100.00;99724.34;4884946;29;20115;-73
2023/03/24 06:39:57;;;;;;;8.07;1.60;;;;;;;7.48;100.00;99726.78;4881502;29;20051;-73
2023/03/24 06:42:22;;;;;;;5.78;1.67;;;;;;;7.54;100.00;99735.31;4884289;29;20052;-73
2023/03/24 06:44:48;;;;;;;4.82;1.73;;;;;;;7.56;100.00;99731.69;4881610;29;20052;-73
2023/03/24 06:47:13;;;;;;;8.45;1.60;;;;;;;7.59;100.00;99739.41;4890481;29;20132;-73
2023/03/24 06:49:39;;;;;;;8.68;2.28;;;;;;;7.62;100.00;99741.06;4885689;29;20059;-73
2023/03/24 06:52:04;;;;;;;6.38;1.90;;;;;;;7.64;100.00;99747.13;4868563;29;20050;-73
2023/03/24 06:54:30;;;;;;;5.18;1.90;;;;;;;7.68;100.00;99751.28;4888294;29;20056;-73
2023/03/24 06:56:56;;;;;;;13.80;2.20;;;;;;;7.70;100.00;99756.47;4888537;29;20103;-73
2023/03/24 06:59:23;;;;;;;8.15;2.55;;;;;;;7.75;100.00;99757.94;4882996;29;20052;-73
2023/03/24 07:01:50;;;;;;;6.22;1.90;;;;;;;7.82;100.00;99763.75;4884980;29;20883;-73
2023/03/24 07:04:16;;;;;;;6.80;1.80;;;;;;;7.88;100.00;99762.59;4884701;29;20056;-73
2023/03/24 07:06:41;;;;;;;13.68;2.25;;;;;;;7.94;100.00;99758.78;4869859;29;20079;-73
2023/03/24 07:09:08;;;;;;;14.50;2.17;;;;;;;8.00;100.00;99769.00;4873658;29;20113;-73
2023/03/24 07:11:33;;;;;;;15.15;2.35;;;;;;;8.03;100.00;99771.50;4884562;29;20043;-73
2023/03/24 07:13:59;;;;;;;13.77;2.33;;;;;;;8.07;100.00;99770.38;4888206;29;20044;-73
2023/03/24 07:16:24;;;;;;;10.05;1.80;;;;;;;8.10;100.00;99778.16;4887684;29;20059;-73
2023/03/24 07:18:50;;;;;;;7.97;1.77;;;;;;;8.13;100.00;99783.25;4886886;29;20721;-73
2023/03/24 07:21:17;;;;;;;5.72;1.55;;;;;;;8.17;100.00;99799.75;4867502;29;20070;-73
2023/03/24 07:23:43;;;;;;;9.98;1.85;;;;;;;8.18;100.00;99772.50;4884837;29;20080;-73
2023/03/24 07:26:08;;;;;;;7.10;1.60;;;;;;;8.20;100.00;99791.72;4871049;29;20699;-73
2023/03/24 07:28:34;;;;;;;7.25;1.90;;;;;;;8.23;100.00;99801.25;4888624;29;20199;-73
2023/03/24 07:31:03;;;;;;;5.30;1.60;;;;;;;8.25;100.00;99802.88;4867757;29;20664;-73
2023/03/24 07:33:30;;;;;;;9.25;1.88;;;;;;;8.26;100.00;99801.94;4885764;29;20056;-73
2023/03/24 07:35:56;;;;;;;9.95;1.58;;;;;;;8.27;100.00;99806.28;4871728;29;20051;-73
2023/03/24 07:38:22;;;;;;;6.93;1.80;;;;;;;8.28;100.00;99804.47;4868078;29;20516;-73
2023/03/24 07:40:47;;;;;;;12.27;1.88;;;;;;;8.31;100.00;99811.38;4887320;29;20657;-74
2023/03/24 07:43:13;;;;;;;6.88;1.70;;;;;;;8.34;100.00;99811.22;4886912;29;20059;-74
2023/03/24 07:45:39;;;;;;;15.02;2.60;;;;;;;8.36;100.00;99815.50;4872120;29;21964;-74
2023/03/24 07:48:04;;;;;;;10.07;2.20;;;;;;;8.38;100.00;99829.44;4890941;29;20040;-74
2023/03/24 07:50:30;;;;;;;8.93;1.92;;;;;;;8.39;100.00;99825.88;4891174;29;20654;-74
2023/03/24 07:52:56;;;;;;;8.32;2.05;;;;;;;8.43;100.00;99827.41;4890258;29;20475;-74
2023/03/24 07:55:22;;;;;;;9.15;2.05;;;;;;;8.44;100.00;99833.53;4866154;29;20044;-74
2023/03/24 07:57:48;;;;;;;6.28;2.10;;;;;;;8.44;100.00;99828.25;4883391;29;20091;-74
2023/03/24 08:00:16;;;;;;;6.65;1.80;;;;;;;8.49;100.00;99835.94;4887035;29;20060;-74
2023/03/24 08:02:44;;;;;;;11.38;1.90;;;;;;;8.52;100.00;99843.72;4866889;29;20079;-74
2023/03/24 08:05:12;;;;;;;11.50;2.42;;;;;;;8.53;100.00;99841.00;4885264;29;20072;-73
2023/03/24 08:07:41;;;;;;;14.90;1.90;;;;;;;8.55;100.00;99836.50;4853525;29;20131;-73
2023/03/24 08:10:11;;;;;;;12.40;2.58;;;;;;;8.63;100.00;99846.66;4861743;29;20158;-73
2023/03/24 08:12:37;;;;;;;11.35;2.00;;;;;;;8.68;100.00;99851.69;4887805;29;20130;-73
2023/03/24 08:15:04;;;;;;;7.18;1.58;;;;;;;8.69;100.00;99850.75;4891148;29;20054;-73
2023/03/24 08:17:31;;;;;;;11.95;2.17;;;;;;;8.73;100.00;99846.16;4891567;29;20052;-73
2023/03/24 08:19:56;;;;;;;10.38;2.55;;;;;;;8.76;100.00;99854.75;4872127;29;20527;-73
2023/03/24 08:22:22;;;;;;;11.52;2.03;;;;;;;8.81;100.00;99857.13;4891346;29;20060;-73
2023/03/24 08:24:47;;;;;;;14.10;2.22;;;;;;;8.83;100.00;99860.56;4873816;29;20071;-73
2023/03/24 08:27:13;;;;;;;9.30;1.80;;;;;;;8.85;100.00;99861.34;4890322;29;20052;-74
2023/03/24 08:29:38;;;;;;;6.55;1.90;;;;;;;8.87;100.00;99866.53;4872225;29;20464;-74
2023/03/24 08:32:05;;;;;;;8.80;2.70;;;;;;;8.89;100.00;99869.94;4889237;29;20059;-74
2023/03/24 08:34:30;;;;;;;13.85;2.55;;;;;;;8.92;100.00;99880.31;4882781;29;20056;-74
2023/03/24 08:36:56;;;;;;;10.95;2.38;;;;;;;8.94;100.00;99883.75;4866932;29;20049;-73
2023/03/24 08:39:23;;;;;;;13.45;2.28;;;;;;;8.96;100.00;99884.50;4847187;29;20805;-73
2023/03/24 08:41:49;;;;;;;8.95;2.00;;;;;;;8.95;100.00;99882.81;4853073;29;21695;-73
2023/03/24 08:44:15;;;;;;;7.00;1.60;;;;;;;8.92;100.00;99890.88;4857554;29;20053;-73
2023/03/24 08:46:41;;;;;;;11.88;2.03;;;;;;;8.91;100.00;99883.88;4860146;29;20129;-72
2023/03/24 08:49:06;;;;;;;8.65;1.92;;;;;;;8.95;100.00;99891.56;4863082;29;20045;-73
2023/03/24 08:51:34;;;;;;;11.02;2.33;;;;;;;9.01;100.00;99900.09;4861167;29;20375;-73
2023/03/24 08:54:00;;;;;;;6.97;2.10;;;;;;;9.06;100.00;99905.97;4856296;29;20649;-72
2023/03/24 08:56:26;;;;;;;10.85;1.80;;;;;;;9.08;100.00;99915.53;4860234;29;20076;-74
2023/03/24 08:58:52;;;;;;;9.55;1.98;;;;;;;9.14;100.00;99910.84;4860546;29;20053;-73
2023/03/24 09:01:24;;;;;;;8.95;2.20;;;;;;;9.20;100.00;99905.22;4860339;29;20573;-73
2023/03/24 09:03:50;;;;;;;12.68;2.25;;;;;;;9.29;100.00;99912.66;4863269;29;20268;-73
2023/03/24 09:06:16;;;;;;;10.18;2.13;;;;;;;9.35;100.00;99919.38;4861237;29;20745;-73
2023/03/24 09:08:42;;;;;;;8.63;1.80;;;;;;;9.41;100.00;99932.25;4858002;29;20045;-74
2023/03/24 09:11:17;;;;;;;8.30;1.50;;;;;;;9.43;100.00;99932.16;4841833;29;20207;-73
2023/03/24 09:13:45;;;;;;;12.57;1.80;;;;;;;9.50;100.00;99930.91;4824418;29;20136;-73
2023/03/24 09:16:11;;;;;;;6.80;1.80;;;;;;;9.61;100.00;99931.16;4859223;29;20536;-73
2023/03/24 09:18:37;;;;;;;10.23;2.13;;;;;;;9.70;100.00;99932.41;4859865;29;20048;-74
2023/03/24 09:21:03;;;;;;;9.73;1.90;;;;;;;9.73;100.00;99936.66;4862526;29;20160;-74
2023/03/24 09:23:30;;;;;;;6.05;2.03;;;;;;;9.73;100.00;99924.31;4859911;29;20052;-74
2023/03/24 09:25:56;;;;;;;9.38;1.52;;;;;;;9.75;100.00;99929.53;4846000;29;20091;-76
2023/03/24 09:28:22;;;;;;;8.13;2.10;;;;;;;9.78;100.00;99947.84;4858259;29;20053;-74
2023/03/24 09:30:48;;;;;;;8.95;1.83;;;;;;;9.80;100.00;99940.66;4859360;29;20048;-74
2023/03/24 09:33:14;;;;;;;11.68;1.92;;;;;;;9.84;100.00;99942.22;4857354;29;20037;-74
2023/03/24 09:35:39;;;;;;;8.45;2.15;;;;;;;9.93;100.00;99946.13;4846155;29;20063;-74
2023/03/24 09:38:05;;;;;;;6.28;1.88;;;;;;;10.00;100.00;99946.63;4863881;29;20151;-74
2023/03/24 09:40:35;;;;;;;10.25;1.92;;;;;;;9.96;100.00;99942.47;4881791;29;20622;-74
2023/03/24 09:43:05;;;;;;;10.27;1.98;;;;;;;9.89;100.00;99940.16;4862097;29;21282;-74
2023/03/24 09:45:34;;;;;;;9.18;1.90;;;;;;;9.90;100.00;99947.16;4867655;29;20082;-74
2023/03/24 09:48:30;;;;;;;6.93;1.98;;;;;;;9.92;100.00;99955.84;4867672;29;20048;-75
2023/03/24 09:51:22;;;;;;;7.90;1.88;;;;;;;9.90;100.00;99967.44;4884251;29;20059;-74
2023/03/24 09:53:51;;;;;;;10.27;2.10;;;;;;;10.01;100.00;99969.47;4879348;29;20047;-74
2023/03/24 09:56:19;;;;;;;8.15;1.60;;;;;;;9.98;100.00;99965.22;4881017;29;20052;-75
2023/03/24 09:58:49;;;;;;;5.20;1.35;;;;;;;10.00;100.00;99963.34;4866617;29;20052;-74
2023/03/24 10:01:15;;;;;;;9.63;1.92;;;;;;;10.12;100.00;99976.78;4864195;29;20041;-74
2023/03/24 10:03:42;;;;;;;7.80;1.90;;;;;;;10.21;100.00;99986.00;4868524;29;20139;-74
2023/03/24 10:06:09;;;;;;;9.27;1.60;;;;;;;10.24;100.00;99969.97;4851205;29;20051;-74
2023/03/24 10:08:37;;;;;;;6.35;1.55;;;;;;;10.26;100.00;99978.66;4880894;29;20296;-74
2023/03/24 10:11:09;;;;;;;6.57;1.35;;;;;;;10.30;100.00;99985.47;4881143;29;20135;-74
2023/03/24 10:13:59;;;;;;;12.43;1.65;;;;;;;10.27;100.00;99978.56;4882192;29;20808;-75
2023/03/24 10:16:28;;;;;;;7.80;1.80;;;;;;;10.32;100.00;99983.59;4877338;29;20580;-74
2023/03/24 10:19:12;;;;;;;6.60;1.40;;;;;;;10.37;100.00;99991.25;4875749;29;20648;-74
2023/03/24 10:21:40;;;;;;;7.65;1.60;;;;;;;10.35;100.00;99993.16;4881811;29;20444;-74
2023/03/24 10:24:13;;;;;;;6.40;1.65;;;;;;;10.35;100.00;99996.63;4878228;29;20051;-75
2023/03/24 10:26:49;;;;;;;9.20;1.38;;;;;;;10.29;100.00;100000.50;4884767;29;20060;-76
2023/03/24 10:29:22;;;;;;;8.20;1.73;;;;;;;10.25;100.00;99992.81;4866251;29;20048;-75
2023/03/24 10:31:52;;;;;;;8.23;1.70;;;;;;;10.26;100.00;99999.81;4881597;29;23936;-74
2023/03/24 10:34:18;;;;;;;16.23;2.17;;;;;;;10.28;100.00;99998.78;4884976;29;20323;-75
2023/03/24 10:36:44;;;;;;;8.90;1.77;;;;;;;10.30;100.00;99996.06;4884247;29;20563;-74
2023/03/24 10:39:14;;;;;;;4.25;1.52;;;;;;;10.28;100.00;100003.22;4873683;29;20048;-75
2023/03/24 10:41:42;;;;;;;7.35;1.63;;;;;;;10.31;100.00;99997.75;4881753;29;20054;-75
2023/03/24 10:44:08;;;;;;;11.13;1.90;;;;;;;10.36;100.00;100008.94;4887365;29;20676;-75
2023/03/24 10:46:37;;;;;;;7.28;1.58;;;;;;;10.34;100.00;100005.50;4867201;29;20987;-74
2023/03/24 10:49:16;;;;;;;7.47;2.03;;;;;;;10.42;100.00;100002.44;4881062;29;20140;-75
2023/03/24 10:51:48;;;;;;;7.30;2.35;;;;;;;10.51;100.00;100011.66;4865911;29;20080;-74
2023/03/24 10:54:24;;;;;;;9.52;1.70;;;;;;;10.62;100.00;99998.63;4880183;29;20060;-75
2023/03/24 10:56:56;;;;;;;10.05;1.88;;;;;;;10.72;100.00;100007.75;4869906;29;20949;-74
2023/03/24 10:59:39;;;;;;;7.70;2.17;;;;;;;10.80;100.00;100009.94;4884413;29;20051;-74
2023/03/24 11:02:15;;;;;;;8.13;1.80;;;;;;;10.94;100.00;100016.19;4879039;29;20062;-75
2023/03/24 11:04:44;;;;;;;9.70;1.73;;;;;;;10.99;100.00;100007.03;4885588;29;20185;-74
2023/03/24 11:07:16;;;;;;;5.68;1.65;;;;;;;11.05;100.00;100005.78;4887186;29;21590;-75
2023/03/24 11:09:49;;;;;;;9.40;1.48;;;;;;;11.11;100.00;100012.53;4865944;29;20152;-74
2023/03/24 11:12:22;;;;;;;;;;;;;;;10.99;100.00;100014.97;4881275;29;20044;-74
2023/03/24 11:14:47;;;;;;;9.75;1.50;;;;;;;10.93;100.00;100022.41;4878410;29;19962;-74
2023/03/24 11:17:14;;;;;;;5.85;1.40;;;;;;;10.92;100.00;100031.31;4868250;29;20048;-75
2023/03/24 11:19:51;;;;;;;8.65;1.70;;;;;;;10.87;100.00;100023.66;4863101;29;20056;-74
2023/03/24 11:22:17;;;;;;;5.18;1.27;;;;;;;10.90;100.00;100015.50;4862282;29;20091;-74
2023/03/24 11:24:42;;;;;;;10.30;2.05;;;;;;;10.94;100.00;100025.00;4867415;29;20059;-74
2023/03/24 11:27:13;;;;;;;6.32;1.52;;;;;;;11.02;100.00;100035.13;4863017;29;20290;-74
2023/03/24 11:29:39;;;;;;;10.70;1.88;;;;;;;11.06;100.00;100020.75;4867553;29;20821;-74
2023/03/24 11:32:24;;;;;;;6.18;1.58;;;;;;;11.16;100.00;100031.63;4866123;29;20077;-74
2023/03/24 11:35:02;;;;;;;6.65;1.50;;;;;;;11.23;100.00;100032.13;4848964;29;20205;-74
2023/03/24 11:37:32;;;;;;;11.73;1.73;;;;;;;11.26;100.00;100022.19;4882577;29;20056;-75
2023/03/24 11:40:24;;;;;;;10.88;1.50;;;;;;;11.22;100.00;100030.44;4865143;29;20055;-74
2023/03/24 11:43:01;;;;;;;11.90;1.70;;;;;;;11.16;100.00;100034.28;4879497;29;21399;-74